sensor_id;sensor_type;location;lat;lon;timestamp;temperature;humidity
36652;DHT22;53334;51.976;20.144;2023-11-21T00:01:20;25.10;41.60
36652;DHT22;53334;51.976;20.144;2023-11-21T00:03:54;25.10;41.40
36652;DHT22;53334;51.976;20.144;2023-11-21T00:06:27;25.10;41.60
36652;DHT22;53334;51.976;20.144;2023-11-21T00:09:03;25.10;41.90
36652;DHT22;53334;51.976;20.144;2023-11-21T00:11:37;25.20;42.20
36652;DHT22;53334;51.976;20.144;2023-11-21T00:14:10;25.20;42.40
36652;DHT22;53334;51.976;20.144;2023-11-21T00:16:44;25.20;42.50
36652;DHT22;53334;51.976;20.144;2023-11-21T00:19:17;25.20;42.60
36652;DHT22;53334;51.976;20.144;2023-11-21T00:21:50;25.20;42.70
36652;DHT22;53334;51.976;20.144;2023-11-21T00:24:24;25.20;42.80
36652;DHT22;53334;51.976;20.144;2023-11-21T00:26:58;25.20;42.90
36652;DHT22;53334;51.976;20.144;2023-11-21T00:29:31;25.20;42.90
36652;DHT22;53334;51.976;20.144;2023-11-21T00:32:05;25.20;43.00
36652;DHT22;53334;51.976;20.144;2023-11-21T00:34:38;25.20;43.00
36652;DHT22;53334;51.976;20.144;2023-11-21T00:37:12;25.20;43.10
36652;DHT22;53334;51.976;20.144;2023-11-21T00:39:47;25.20;43.10
36652;DHT22;53334;51.976;20.144;2023-11-21T00:42:21;25.20;43.20
36652;DHT22;53334;51.976;20.144;2023-11-21T00:44:55;25.20;43.20
36652;DHT22;53334;51.976;20.144;2023-11-21T00:47:29;25.20;43.30
36652;DHT22;53334;51.976;20.144;2023-11-21T00:50:02;25.30;43.40
36652;DHT22;53334;51.976;20.144;2023-11-21T00:52:37;25.20;43.40
36652;DHT22;53334;51.976;20.144;2023-11-21T00:55:12;25.30;43.40
36652;DHT22;53334;51.976;20.144;2023-11-21T00:57:45;25.20;44.00
36652;DHT22;53334;51.976;20.144;2023-11-21T01:00:18;25.30;43.60
36652;DHT22;53334;51.976;20.144;2023-11-21T01:02:51;25.30;43.60
36652;DHT22;53334;51.976;20.144;2023-11-21T01:05:25;25.30;43.60
36652;DHT22;53334;51.976;20.144;2023-11-21T01:07:58;25.30;43.60
36652;DHT22;53334;51.976;20.144;2023-11-21T01:10:33;25.30;43.70
36652;DHT22;53334;51.976;20.144;2023-11-21T01:13:07;25.30;43.70
36652;DHT22;53334;51.976;20.144;2023-11-21T01:15:40;25.30;43.70
36652;DHT22;53334;51.976;20.144;2023-11-21T01:18:13;25.30;43.70
36652;DHT22;53334;51.976;20.144;2023-11-21T01:20:46;25.30;43.70
36652;DHT22;53334;51.976;20.144;2023-11-21T01:23:19;25.30;44.30
36652;DHT22;53334;51.976;20.144;2023-11-21T01:25:56;25.30;43.80
36652;DHT22;53334;51.976;20.144;2023-11-21T01:28:29;25.30;43.80
36652;DHT22;53334;51.976;20.144;2023-11-21T01:31:02;25.30;43.80
36652;DHT22;53334;51.976;20.144;2023-11-21T01:33:36;25.30;43.80
36652;DHT22;53334;51.976;20.144;2023-11-21T01:36:10;25.30;43.90
36652;DHT22;53334;51.976;20.144;2023-11-21T01:38:43;25.40;44.00
36652;DHT22;53334;51.976;20.144;2023-11-21T01:41:17;25.30;43.90
36652;DHT22;53334;51.976;20.144;2023-11-21T01:43:52;25.30;43.90
36652;DHT22;53334;51.976;20.144;2023-11-21T01:46:25;25.30;43.90
36652;DHT22;53334;51.976;20.144;2023-11-21T01:48:59;25.40;44.00
36652;DHT22;53334;51.976;20.144;2023-11-21T01:51:32;25.40;44.10
36652;DHT22;53334;51.976;20.144;2023-11-21T01:54:07;25.40;44.00
36652;DHT22;53334;51.976;20.144;2023-11-21T01:56:50;25.40;44.00
36652;DHT22;53334;51.976;20.144;2023-11-21T01:59:24;25.40;44.00
36652;DHT22;53334;51.976;20.144;2023-11-21T02:01:59;25.30;44.00
36652;DHT22;53334;51.976;20.144;2023-11-21T02:04:32;25.30;44.00
36652;DHT22;53334;51.976;20.144;2023-11-21T02:07:06;25.40;44.10
36652;DHT22;53334;51.976;20.144;2023-11-21T02:09:40;25.30;44.00
36652;DHT22;53334;51.976;20.144;2023-11-21T02:12:15;25.40;44.10
36652;DHT22;53334;51.976;20.144;2023-11-21T02:14:49;25.40;44.10
36652;DHT22;53334;51.976;20.144;2023-11-21T02:17:23;25.40;44.10
36652;DHT22;53334;51.976;20.144;2023-11-21T02:19:56;25.40;44.10
36652;DHT22;53334;51.976;20.144;2023-11-21T02:22:31;25.40;44.10
36652;DHT22;53334;51.976;20.144;2023-11-21T02:25:09;25.40;44.20
36652;DHT22;53334;51.976;20.144;2023-11-21T02:27:43;25.40;44.20
36652;DHT22;53334;51.976;20.144;2023-11-21T02:30:20;25.40;44.30
36652;DHT22;53334;51.976;20.144;2023-11-21T02:32:54;25.40;44.30
36652;DHT22;53334;51.976;20.144;2023-11-21T02:35:30;25.40;44.30
36652;DHT22;53334;51.976;20.144;2023-11-21T02:38:04;25.40;44.30
36652;DHT22;53334;51.976;20.144;2023-11-21T02:40:39;25.40;44.30
36652;DHT22;53334;51.976;20.144;2023-11-21T02:43:12;25.40;44.30
36652;DHT22;53334;51.976;20.144;2023-11-21T02:45:46;25.40;44.30
36652;DHT22;53334;51.976;20.144;2023-11-21T02:48:19;25.40;44.30
36652;DHT22;53334;51.976;20.144;2023-11-21T02:50:52;25.40;44.30
36652;DHT22;53334;51.976;20.144;2023-11-21T02:53:25;25.40;44.30
36652;DHT22;53334;51.976;20.144;2023-11-21T02:55:59;25.40;44.30
36652;DHT22;53334;51.976;20.144;2023-11-21T02:58:33;25.40;44.40
36652;DHT22;53334;51.976;20.144;2023-11-21T03:01:06;25.40;44.40
36652;DHT22;53334;51.976;20.144;2023-11-21T03:03:39;25.40;44.30
36652;DHT22;53334;51.976;20.144;2023-11-21T03:06:13;25.40;44.30
36652;DHT22;53334;51.976;20.144;2023-11-21T03:08:47;25.40;44.30
36652;DHT22;53334;51.976;20.144;2023-11-21T03:11:22;25.40;44.40
36652;DHT22;53334;51.976;20.144;2023-11-21T03:13:55;25.40;44.40
36652;DHT22;53334;51.976;20.144;2023-11-21T03:16:28;25.40;44.40
36652;DHT22;53334;51.976;20.144;2023-11-21T03:19:02;25.40;44.40
36652;DHT22;53334;51.976;20.144;2023-11-21T03:21:35;25.40;45.00
36652;DHT22;53334;51.976;20.144;2023-11-21T03:24:08;25.40;44.50
36652;DHT22;53334;51.976;20.144;2023-11-21T03:26:45;25.50;44.50
36652;DHT22;53334;51.976;20.144;2023-11-21T03:29:19;25.50;44.50
36652;DHT22;53334;51.976;20.144;2023-11-21T03:31:53;25.40;44.50
36652;DHT22;53334;51.976;20.144;2023-11-21T03:34:27;25.40;44.40
36652;DHT22;53334;51.976;20.144;2023-11-21T03:37:00;25.40;44.40
36652;DHT22;53334;51.976;20.144;2023-11-21T03:39:34;25.50;44.50
36652;DHT22;53334;51.976;20.144;2023-11-21T03:42:08;25.50;44.40
36652;DHT22;53334;51.976;20.144;2023-11-21T03:44:41;25.40;44.30
36652;DHT22;53334;51.976;20.144;2023-11-21T03:47:15;25.40;44.30
36652;DHT22;53334;51.976;20.144;2023-11-21T03:49:48;25.40;44.30
36652;DHT22;53334;51.976;20.144;2023-11-21T03:52:21;25.40;44.40
36652;DHT22;53334;51.976;20.144;2023-11-21T03:55:18;25.40;44.40
36652;DHT22;53334;51.976;20.144;2023-11-21T03:57:53;25.40;44.90
36652;DHT22;53334;51.976;20.144;2023-11-21T04:00:27;25.40;44.30
36652;DHT22;53334;51.976;20.144;2023-11-21T04:03:00;25.40;44.30
36652;DHT22;53334;51.976;20.144;2023-11-21T04:05:34;25.50;44.40
36652;DHT22;53334;51.976;20.144;2023-11-21T04:08:07;25.40;44.30
36652;DHT22;53334;51.976;20.144;2023-11-21T04:10:40;25.40;44.30
36652;DHT22;53334;51.976;20.144;2023-11-21T04:13:15;25.50;44.40
36652;DHT22;53334;51.976;20.144;2023-11-21T04:15:48;25.50;44.40
36652;DHT22;53334;51.976;20.144;2023-11-21T04:18:21;25.40;44.30
36652;DHT22;53334;51.976;20.144;2023-11-21T04:20:54;25.50;44.40
36652;DHT22;53334;51.976;20.144;2023-11-21T04:23:29;25.40;44.30
36652;DHT22;53334;51.976;20.144;2023-11-21T04:26:03;25.50;44.40
36652;DHT22;53334;51.976;20.144;2023-11-21T04:28:37;25.50;44.40
36652;DHT22;53334;51.976;20.144;2023-11-21T04:31:11;25.50;44.40
36652;DHT22;53334;51.976;20.144;2023-11-21T04:33:44;25.40;44.30
36652;DHT22;53334;51.976;20.144;2023-11-21T04:36:17;25.50;44.40
36652;DHT22;53334;51.976;20.144;2023-11-21T04:38:50;25.50;44.40
36652;DHT22;53334;51.976;20.144;2023-11-21T04:41:23;25.50;44.40
36652;DHT22;53334;51.976;20.144;2023-11-21T04:43:58;25.40;44.30
36652;DHT22;53334;51.976;20.144;2023-11-21T04:46:32;25.50;44.40
36652;DHT22;53334;51.976;20.144;2023-11-21T04:49:06;25.50;44.40
36652;DHT22;53334;51.976;20.144;2023-11-21T04:51:39;25.50;44.40
36652;DHT22;53334;51.976;20.144;2023-11-21T04:54:12;25.50;44.40
36652;DHT22;53334;51.976;20.144;2023-11-21T04:56:45;25.50;44.40
36652;DHT22;53334;51.976;20.144;2023-11-21T04:59:19;25.50;44.40
36652;DHT22;53334;51.976;20.144;2023-11-21T05:01:56;25.50;44.40
36652;DHT22;53334;51.976;20.144;2023-11-21T05:04:29;25.50;44.40
36652;DHT22;53334;51.976;20.144;2023-11-21T05:07:03;25.50;44.30
36652;DHT22;53334;51.976;20.144;2023-11-21T05:09:36;25.50;44.30
36652;DHT22;53334;51.976;20.144;2023-11-21T05:12:09;25.50;44.30
36652;DHT22;53334;51.976;20.144;2023-11-21T05:14:45;25.50;44.60
36652;DHT22;53334;51.976;20.144;2023-11-21T05:17:18;25.50;44.70
36652;DHT22;53334;51.976;20.144;2023-11-21T05:19:51;25.50;44.70
36652;DHT22;53334;51.976;20.144;2023-11-21T05:22:24;25.50;44.60
36652;DHT22;53334;51.976;20.144;2023-11-21T05:24:58;25.50;44.50
36652;DHT22;53334;51.976;20.144;2023-11-21T05:27:31;25.50;44.60
36652;DHT22;53334;51.976;20.144;2023-11-21T05:30:06;25.50;44.60
36652;DHT22;53334;51.976;20.144;2023-11-21T05:32:41;25.50;44.50
36652;DHT22;53334;51.976;20.144;2023-11-21T05:35:15;25.50;44.60
36652;DHT22;53334;51.976;20.144;2023-11-21T05:37:49;25.50;44.60
36652;DHT22;53334;51.976;20.144;2023-11-21T05:40:23;25.50;45.00
36652;DHT22;53334;51.976;20.144;2023-11-21T05:42:58;25.50;44.30
36652;DHT22;53334;51.976;20.144;2023-11-21T05:45:33;25.60;44.30
36652;DHT22;53334;51.976;20.144;2023-11-21T05:48:06;25.60;44.30
36652;DHT22;53334;51.976;20.144;2023-11-21T05:50:39;25.60;44.30
36652;DHT22;53334;51.976;20.144;2023-11-21T05:53:13;25.60;44.50
36652;DHT22;53334;51.976;20.144;2023-11-21T05:55:47;25.60;44.60
36652;DHT22;53334;51.976;20.144;2023-11-21T05:58:20;25.60;44.80
36652;DHT22;53334;51.976;20.144;2023-11-21T06:00:55;25.60;44.90
36652;DHT22;53334;51.976;20.144;2023-11-21T06:03:28;25.60;44.90
36652;DHT22;53334;51.976;20.144;2023-11-21T06:06:02;25.60;44.90
36652;DHT22;53334;51.976;20.144;2023-11-21T06:08:36;25.60;45.00
36652;DHT22;53334;51.976;20.144;2023-11-21T06:11:09;25.60;45.10
36652;DHT22;53334;51.976;20.144;2023-11-21T06:13:43;25.60;45.10
36652;DHT22;53334;51.976;20.144;2023-11-21T06:16:18;25.60;45.30
36652;DHT22;53334;51.976;20.144;2023-11-21T06:18:51;25.70;45.40
36652;DHT22;53334;51.976;20.144;2023-11-21T06:21:24;25.70;45.60
36652;DHT22;53334;51.976;20.144;2023-11-21T06:23:58;25.70;45.60
36652;DHT22;53334;51.976;20.144;2023-11-21T06:26:31;25.70;45.60
36652;DHT22;53334;51.976;20.144;2023-11-21T06:29:05;25.70;45.60
36652;DHT22;53334;51.976;20.144;2023-11-21T06:31:40;25.70;45.60
36652;DHT22;53334;51.976;20.144;2023-11-21T06:34:13;25.70;45.80
36652;DHT22;53334;51.976;20.144;2023-11-21T06:36:46;25.70;45.90
36652;DHT22;53334;51.976;20.144;2023-11-21T06:39:20;25.70;45.90
36652;DHT22;53334;51.976;20.144;2023-11-21T06:41:54;25.70;45.80
36652;DHT22;53334;51.976;20.144;2023-11-21T06:44:28;25.70;45.70
36652;DHT22;53334;51.976;20.144;2023-11-21T06:47:02;25.70;45.60
36652;DHT22;53334;51.976;20.144;2023-11-21T06:49:35;25.70;45.70
36652;DHT22;53334;51.976;20.144;2023-11-21T06:52:10;25.70;46.20
36652;DHT22;53334;51.976;20.144;2023-11-21T06:54:43;25.70;45.50
36652;DHT22;53334;51.976;20.144;2023-11-21T06:57:17;25.70;45.40
36652;DHT22;53334;51.976;20.144;2023-11-21T06:59:50;25.70;45.30
36652;DHT22;53334;51.976;20.144;2023-11-21T07:02:24;25.70;45.30
36652;DHT22;53334;51.976;20.144;2023-11-21T07:04:58;25.70;45.20
36652;DHT22;53334;51.976;20.144;2023-11-21T07:07:31;25.70;45.10
36652;DHT22;53334;51.976;20.144;2023-11-21T07:10:07;25.70;45.00
36652;DHT22;53334;51.976;20.144;2023-11-21T07:12:41;25.70;45.00
36652;DHT22;53334;51.976;20.144;2023-11-21T07:15:14;25.70;44.90
36652;DHT22;53334;51.976;20.144;2023-11-21T07:17:49;25.70;44.70
36652;DHT22;53334;51.976;20.144;2023-11-21T07:20:22;25.70;44.60
36652;DHT22;53334;51.976;20.144;2023-11-21T07:22:55;25.70;44.60
36652;DHT22;53334;51.976;20.144;2023-11-21T07:25:29;25.70;44.50
36652;DHT22;53334;51.976;20.144;2023-11-21T07:28:03;25.70;44.50
36652;DHT22;53334;51.976;20.144;2023-11-21T07:30:37;25.70;44.50
36652;DHT22;53334;51.976;20.144;2023-11-21T07:33:12;25.60;44.50
36652;DHT22;53334;51.976;20.144;2023-11-21T07:35:45;25.60;44.50
36652;DHT22;53334;51.976;20.144;2023-11-21T07:38:18;25.60;44.50
36652;DHT22;53334;51.976;20.144;2023-11-21T07:40:51;25.60;44.50
36652;DHT22;53334;51.976;20.144;2023-11-21T07:43:24;25.60;44.50
36652;DHT22;53334;51.976;20.144;2023-11-21T07:45:58;25.60;44.50
36652;DHT22;53334;51.976;20.144;2023-11-21T07:48:33;25.60;44.50
36652;DHT22;53334;51.976;20.144;2023-11-21T07:51:07;25.60;44.50
36652;DHT22;53334;51.976;20.144;2023-11-21T07:53:40;25.60;44.60
36652;DHT22;53334;51.976;20.144;2023-11-21T07:56:13;25.60;38.30
36652;DHT22;53334;51.976;20.144;2023-11-21T07:58:46;25.50;33.10
36652;DHT22;53334;51.976;20.144;2023-11-21T08:01:22;25.40;31.40
36652;DHT22;53334;51.976;20.144;2023-11-21T08:03:56;25.30;31.70
36652;DHT22;53334;51.976;20.144;2023-11-21T08:06:34;25.20;32.10
36652;DHT22;53334;51.976;20.144;2023-11-21T08:09:07;25.20;33.50
36652;DHT22;53334;51.976;20.144;2023-11-21T08:11:40;25.20;34.10
36652;DHT22;53334;51.976;20.144;2023-11-21T08:14:15;25.10;36.10
36652;DHT22;53334;51.976;20.144;2023-11-21T08:16:48;25.10;35.00
36652;DHT22;53334;51.976;20.144;2023-11-21T08:19:22;25.10;35.40
36652;DHT22;53334;51.976;20.144;2023-11-21T08:21:57;25.10;35.10
36652;DHT22;53334;51.976;20.144;2023-11-21T08:24:31;25.10;35.10
36652;DHT22;53334;51.976;20.144;2023-11-21T08:27:04;25.10;35.30
36652;DHT22;53334;51.976;20.144;2023-11-21T08:29:39;25.10;35.70
36652;DHT22;53334;51.976;20.144;2023-11-21T08:32:12;25.10;36.20
36652;DHT22;53334;51.976;20.144;2023-11-21T08:34:46;25.10;36.50
36652;DHT22;53334;51.976;20.144;2023-11-21T08:37:24;25.10;36.90
36652;DHT22;53334;51.976;20.144;2023-11-21T08:39:59;25.10;37.00
36652;DHT22;53334;51.976;20.144;2023-11-21T08:42:32;25.10;37.00
36652;DHT22;53334;51.976;20.144;2023-11-21T08:45:07;25.10;37.20
36652;DHT22;53334;51.976;20.144;2023-11-21T08:47:40;25.10;37.30
36652;DHT22;53334;51.976;20.144;2023-11-21T08:50:17;25.10;37.60
36652;DHT22;53334;51.976;20.144;2023-11-21T08:52:51;25.10;37.60
36652;DHT22;53334;51.976;20.144;2023-11-21T08:55:24;25.10;37.70
36652;DHT22;53334;51.976;20.144;2023-11-21T08:57:59;25.10;38.00
36652;DHT22;53334;51.976;20.144;2023-11-21T09:00:33;25.10;37.90
36652;DHT22;53334;51.976;20.144;2023-11-21T09:03:07;25.10;38.10
36652;DHT22;53334;51.976;20.144;2023-11-21T09:05:42;25.10;38.10
36652;DHT22;53334;51.976;20.144;2023-11-21T09:08:19;25.10;38.30
36652;DHT22;53334;51.976;20.144;2023-11-21T09:10:54;25.10;38.30
36652;DHT22;53334;51.976;20.144;2023-11-21T09:13:27;25.10;38.70
36652;DHT22;53334;51.976;20.144;2023-11-21T09:16:02;25.10;38.90
36652;DHT22;53334;51.976;20.144;2023-11-21T09:18:35;25.10;39.10
36652;DHT22;53334;51.976;20.144;2023-11-21T09:21:09;25.20;39.20
36652;DHT22;53334;51.976;20.144;2023-11-21T09:23:43;25.10;39.20
36652;DHT22;53334;51.976;20.144;2023-11-21T09:26:16;25.20;40.70
36652;DHT22;53334;51.976;20.144;2023-11-21T09:28:50;25.10;41.50
36652;DHT22;53334;51.976;20.144;2023-11-21T09:31:23;25.20;41.00
36652;DHT22;53334;51.976;20.144;2023-11-21T09:33:56;25.20;40.60
36652;DHT22;53334;51.976;20.144;2023-11-21T09:36:31;25.20;40.50
36652;DHT22;53334;51.976;20.144;2023-11-21T09:39:05;25.20;40.40
36652;DHT22;53334;51.976;20.144;2023-11-21T09:41:43;25.20;40.30
36652;DHT22;53334;51.976;20.144;2023-11-21T09:44:18;25.20;40.40
36652;DHT22;53334;51.976;20.144;2023-11-21T09:46:56;25.20;40.10
36652;DHT22;53334;51.976;20.144;2023-11-21T09:49:33;25.20;40.30
36652;DHT22;53334;51.976;20.144;2023-11-21T09:52:09;25.10;40.10
36652;DHT22;53334;51.976;20.144;2023-11-21T09:54:47;25.10;39.70
36652;DHT22;53334;51.976;20.144;2023-11-21T09:57:21;25.10;39.60
36652;DHT22;53334;51.976;20.144;2023-11-21T10:00:00;25.10;39.70
36652;DHT22;53334;51.976;20.144;2023-11-21T10:02:37;25.10;39.70
36652;DHT22;53334;51.976;20.144;2023-11-21T10:05:11;25.10;39.60
36652;DHT22;53334;51.976;20.144;2023-11-21T10:07:46;25.10;39.50
36652;DHT22;53334;51.976;20.144;2023-11-21T10:10:20;25.10;39.50
36652;DHT22;53334;51.976;20.144;2023-11-21T10:12:56;25.10;39.40
36652;DHT22;53334;51.976;20.144;2023-11-21T10:15:29;25.10;39.40
36652;DHT22;53334;51.976;20.144;2023-11-21T10:18:07;25.10;39.20
36652;DHT22;53334;51.976;20.144;2023-11-21T10:20:41;25.10;39.20
36652;DHT22;53334;51.976;20.144;2023-11-21T10:23:20;25.20;39.40
36652;DHT22;53334;51.976;20.144;2023-11-21T10:25:54;25.10;39.30
36652;DHT22;53334;51.976;20.144;2023-11-21T10:28:38;25.20;39.30
36652;DHT22;53334;51.976;20.144;2023-11-21T10:31:11;25.20;39.40
36652;DHT22;53334;51.976;20.144;2023-11-21T10:33:45;25.20;39.60
36652;DHT22;53334;51.976;20.144;2023-11-21T10:36:25;25.20;39.70
36652;DHT22;53334;51.976;20.144;2023-11-21T10:39:00;25.20;39.80
36652;DHT22;53334;51.976;20.144;2023-11-21T10:41:33;25.10;39.60
36652;DHT22;53334;51.976;20.144;2023-11-21T10:44:08;25.10;39.10
36652;DHT22;53334;51.976;20.144;2023-11-21T10:46:43;25.20;39.00
36652;DHT22;53334;51.976;20.144;2023-11-21T10:49:17;25.20;39.10
36652;DHT22;53334;51.976;20.144;2023-11-21T10:51:51;25.20;39.20
36652;DHT22;53334;51.976;20.144;2023-11-21T10:54:26;25.20;39.30
36652;DHT22;53334;51.976;20.144;2023-11-21T10:57:00;25.20;39.40
36652;DHT22;53334;51.976;20.144;2023-11-21T10:59:34;25.20;39.40
36652;DHT22;53334;51.976;20.144;2023-11-21T11:02:13;25.20;39.50
36652;DHT22;53334;51.976;20.144;2023-11-21T11:04:53;25.20;39.60
36652;DHT22;53334;51.976;20.144;2023-11-21T11:07:27;25.20;39.50
36652;DHT22;53334;51.976;20.144;2023-11-21T11:10:04;25.20;39.60
36652;DHT22;53334;51.976;20.144;2023-11-21T11:12:40;25.20;39.80
36652;DHT22;53334;51.976;20.144;2023-11-21T11:15:14;25.20;39.80
36652;DHT22;53334;51.976;20.144;2023-11-21T11:17:48;25.20;39.80
36652;DHT22;53334;51.976;20.144;2023-11-21T11:20:21;25.20;39.50
36652;DHT22;53334;51.976;20.144;2023-11-21T11:23:05;25.20;40.50
36652;DHT22;53334;51.976;20.144;2023-11-21T11:26:05;25.20;39.80
36652;DHT22;53334;51.976;20.144;2023-11-21T11:28:57;25.20;40.20
36652;DHT22;53334;51.976;20.144;2023-11-21T11:31:40;25.20;40.00
36652;DHT22;53334;51.976;20.144;2023-11-21T11:34:24;25.10;39.50
36652;DHT22;53334;51.976;20.144;2023-11-21T11:37:01;25.20;39.80
36652;DHT22;53334;51.976;20.144;2023-11-21T11:39:37;25.20;39.50
36652;DHT22;53334;51.976;20.144;2023-11-21T11:42:14;25.20;39.20
36652;DHT22;53334;51.976;20.144;2023-11-21T11:44:51;25.10;39.20
36652;DHT22;53334;51.976;20.144;2023-11-21T11:47:28;25.20;39.50
36652;DHT22;53334;51.976;20.144;2023-11-21T11:50:07;25.20;40.10
36652;DHT22;53334;51.976;20.144;2023-11-21T11:52:46;25.20;39.50
36652;DHT22;53334;51.976;20.144;2023-11-21T11:55:21;25.20;40.10
36652;DHT22;53334;51.976;20.144;2023-11-21T11:57:57;25.20;39.40
36652;DHT22;53334;51.976;20.144;2023-11-21T12:00:34;25.20;39.50
36652;DHT22;53334;51.976;20.144;2023-11-21T12:03:10;25.20;39.40
36652;DHT22;53334;51.976;20.144;2023-11-21T12:05:46;25.20;39.40
36652;DHT22;53334;51.976;20.144;2023-11-21T12:08:21;25.20;39.30
36652;DHT22;53334;51.976;20.144;2023-11-21T12:10:55;25.20;39.30
36652;DHT22;53334;51.976;20.144;2023-11-21T12:13:30;25.20;39.40
36652;DHT22;53334;51.976;20.144;2023-11-21T12:16:04;25.20;39.80
36652;DHT22;53334;51.976;20.144;2023-11-21T12:18:38;25.20;41.10
36652;DHT22;53334;51.976;20.144;2023-11-21T12:21:11;25.20;41.30
36652;DHT22;53334;51.976;20.144;2023-11-21T12:23:46;25.30;41.30
36652;DHT22;53334;51.976;20.144;2023-11-21T12:26:19;25.30;41.40
36652;DHT22;53334;51.976;20.144;2023-11-21T12:28:56;25.30;41.40
36652;DHT22;53334;51.976;20.144;2023-11-21T12:31:29;25.30;41.40
36652;DHT22;53334;51.976;20.144;2023-11-21T12:34:03;25.30;41.20
36652;DHT22;53334;51.976;20.144;2023-11-21T12:36:38;25.30;41.20
36652;DHT22;53334;51.976;20.144;2023-11-21T12:39:12;25.30;41.20
36652;DHT22;53334;51.976;20.144;2023-11-21T12:41:46;25.30;41.10
36652;DHT22;53334;51.976;20.144;2023-11-21T12:44:21;25.30;41.10
36652;DHT22;53334;51.976;20.144;2023-11-21T12:46:55;25.30;40.90
36652;DHT22;53334;51.976;20.144;2023-11-21T12:49:28;25.30;41.10
36652;DHT22;53334;51.976;20.144;2023-11-21T12:52:05;25.30;41.40
36652;DHT22;53334;51.976;20.144;2023-11-21T12:54:38;25.30;41.60
36652;DHT22;53334;51.976;20.144;2023-11-21T12:57:12;25.30;41.50
36652;DHT22;53334;51.976;20.144;2023-11-21T12:59:46;25.30;41.50
36652;DHT22;53334;51.976;20.144;2023-11-21T13:02:20;25.30;41.60
36652;DHT22;53334;51.976;20.144;2023-11-21T13:04:57;25.30;41.50
36652;DHT22;53334;51.976;20.144;2023-11-21T13:07:30;25.40;41.70
36652;DHT22;53334;51.976;20.144;2023-11-21T13:10:18;25.30;41.60
36652;DHT22;53334;51.976;20.144;2023-11-21T13:12:52;25.30;41.60
36652;DHT22;53334;51.976;20.144;2023-11-21T13:15:28;25.40;41.60
36652;DHT22;53334;51.976;20.144;2023-11-21T13:18:03;25.30;41.50
36652;DHT22;53334;51.976;20.144;2023-11-21T13:20:36;25.30;41.50
36652;DHT22;53334;51.976;20.144;2023-11-21T13:23:10;25.30;41.50
36652;DHT22;53334;51.976;20.144;2023-11-21T13:25:44;25.30;41.60
36652;DHT22;53334;51.976;20.144;2023-11-21T13:28:29;25.30;41.60
36652;DHT22;53334;51.976;20.144;2023-11-21T13:31:06;25.30;41.50
36652;DHT22;53334;51.976;20.144;2023-11-21T13:33:54;25.40;41.50
36652;DHT22;53334;51.976;20.144;2023-11-21T13:36:36;25.40;41.60
36652;DHT22;53334;51.976;20.144;2023-11-21T13:39:10;25.40;41.60
36652;DHT22;53334;51.976;20.144;2023-11-21T13:41:47;25.30;41.60
36652;DHT22;53334;51.976;20.144;2023-11-21T13:44:26;25.40;41.60
36652;DHT22;53334;51.976;20.144;2023-11-21T13:47:08;25.30;41.40
36652;DHT22;53334;51.976;20.144;2023-11-21T13:49:41;25.40;42.00
36652;DHT22;53334;51.976;20.144;2023-11-21T13:52:14;25.40;41.40
36652;DHT22;53334;51.976;20.144;2023-11-21T13:54:49;25.40;41.90
36652;DHT22;53334;51.976;20.144;2023-11-21T13:57:22;25.40;41.30
36652;DHT22;53334;51.976;20.144;2023-11-21T13:59:55;25.40;41.20
36652;DHT22;53334;51.976;20.144;2023-11-21T14:02:32;25.40;41.20
36652;DHT22;53334;51.976;20.144;2023-11-21T14:05:12;25.40;41.10
36652;DHT22;53334;51.976;20.144;2023-11-21T14:07:46;25.40;41.20
36652;DHT22;53334;51.976;20.144;2023-11-21T14:10:20;25.40;41.20
36652;DHT22;53334;51.976;20.144;2023-11-21T14:12:56;25.40;41.20
36652;DHT22;53334;51.976;20.144;2023-11-21T14:15:30;25.40;41.50
36652;DHT22;53334;51.976;20.144;2023-11-21T14:18:06;25.40;41.70
36652;DHT22;53334;51.976;20.144;2023-11-21T14:20:42;25.50;42.10
36652;DHT22;53334;51.976;20.144;2023-11-21T14:23:15;25.40;42.00
36652;DHT22;53334;51.976;20.144;2023-11-21T14:25:50;25.40;42.10
36652;DHT22;53334;51.976;20.144;2023-11-21T14:28:23;25.50;42.00
36652;DHT22;53334;51.976;20.144;2023-11-21T14:30:56;25.50;42.10
36652;DHT22;53334;51.976;20.144;2023-11-21T14:33:31;25.50;42.00
36652;DHT22;53334;51.976;20.144;2023-11-21T14:36:06;25.50;42.00
36652;DHT22;53334;51.976;20.144;2023-11-21T14:38:40;25.50;42.00
36652;DHT22;53334;51.976;20.144;2023-11-21T14:41:14;25.50;42.00
36652;DHT22;53334;51.976;20.144;2023-11-21T14:43:48;25.50;41.80
36652;DHT22;53334;51.976;20.144;2023-11-21T14:46:21;25.50;41.70
36652;DHT22;53334;51.976;20.144;2023-11-21T14:48:56;25.50;41.60
36652;DHT22;53334;51.976;20.144;2023-11-21T14:51:38;25.50;41.60
36652;DHT22;53334;51.976;20.144;2023-11-21T14:54:32;25.50;41.70
36652;DHT22;53334;51.976;20.144;2023-11-21T14:57:16;25.50;41.70
36652;DHT22;53334;51.976;20.144;2023-11-21T14:59:50;25.50;42.00
36652;DHT22;53334;51.976;20.144;2023-11-21T15:02:24;25.50;42.60
36652;DHT22;53334;51.976;20.144;2023-11-21T15:05:19;25.50;42.50
36652;DHT22;53334;51.976;20.144;2023-11-21T15:07:52;25.50;42.40
36652;DHT22;53334;51.976;20.144;2023-11-21T15:10:28;25.50;42.20
36652;DHT22;53334;51.976;20.144;2023-11-21T15:13:10;25.50;42.60
36652;DHT22;53334;51.976;20.144;2023-11-21T15:15:43;25.50;42.90
36652;DHT22;53334;51.976;20.144;2023-11-21T15:18:16;25.50;42.50
36652;DHT22;53334;51.976;20.144;2023-11-21T15:20:51;25.50;42.70
36652;DHT22;53334;51.976;20.144;2023-11-21T15:23:24;25.50;42.60
36652;DHT22;53334;51.976;20.144;2023-11-21T15:26:00;25.50;42.10
36652;DHT22;53334;51.976;20.144;2023-11-21T15:28:35;25.50;41.70
36652;DHT22;53334;51.976;20.144;2023-11-21T15:31:08;25.40;41.30
36652;DHT22;53334;51.976;20.144;2023-11-21T15:33:42;25.40;41.20
36652;DHT22;53334;51.976;20.144;2023-11-21T15:36:16;25.50;41.30
36652;DHT22;53334;51.976;20.144;2023-11-21T15:38:50;25.40;41.30
36652;DHT22;53334;51.976;20.144;2023-11-21T15:41:23;25.40;41.30
36652;DHT22;53334;51.976;20.144;2023-11-21T15:43:56;25.40;41.30
36652;DHT22;53334;51.976;20.144;2023-11-21T15:46:29;25.40;41.30
36652;DHT22;53334;51.976;20.144;2023-11-21T15:49:03;25.40;41.90
36652;DHT22;53334;51.976;20.144;2023-11-21T15:51:45;25.40;41.60
36652;DHT22;53334;51.976;20.144;2023-11-21T15:54:19;25.30;41.20
36652;DHT22;53334;51.976;20.144;2023-11-21T15:56:54;25.40;41.20
36652;DHT22;53334;51.976;20.144;2023-11-21T15:59:29;25.40;41.30
36652;DHT22;53334;51.976;20.144;2023-11-21T16:02:04;25.40;41.30